Naples, Kentucky
Current Conditions -  °F | °C
As of 8:51 PM on Thursday 20 Nov 2014 (Local Time) from KHTS Reporting Station
Clear Clear  
Wind Chill: 23°   Ceiling: Unl
Heat Index: 28°   Visibility: 10mi
Dew Point: 16°   Wind: 5mph
Humidity: 61%   Direction: 280°W
Pressure: 30.2"   Gusts: NA
Location:  38.4314°N, 82.6662°W
Report Text: KHTS 210151Z 28004KT 10SM CLR M02/M09 A3020 RMK AO2 SLP232 T10221089
Loading
Personal Weather Stations






























Interactive Weather Map New forecast layout! Learn more

10-Day Weather Forecast

Advertisements
Track Severe Weather on mobile